Time;durP1;ratioP1;P1;durP2;ratioP2;P2;SDS_P1;SDS_P2;PMS_P1;PMS_P2;Temp;Humidity;BMP_temperature;BMP_pressure;BME280_temperature;BME280_humidity;BME280_pressure;Samples;Min_cycle;Max_cycle;Signal;HPM_P1;HPM_P2
2022/09/18 00:00:51;;;;;;;4.25;1.70;;;10.30;99.90;;;;;;2105614;28;20067;-74
2022/09/18 00:01:51;;;;;;;3.28;1.50;;;10.30;99.90;;;;;;2104766;28;20026;-74
2022/09/18 00:02:52;;;;;;;3.72;1.80;;;10.30;99.90;;;;;;2105023;28;20098;-74
2022/09/18 00:03:58;;;;;;;2.90;1.70;;;10.30;99.90;;;;;;2105823;28;20032;-74
2022/09/18 00:04:59;;;;;;;2.33;1.40;;;10.30;99.90;;;;;;2105768;28;20016;-74
2022/09/18 00:06:06;;;;;;;2.90;1.70;;;10.30;99.90;;;;;;2104190;28;20135;-75
2022/09/18 00:07:06;;;;;;;3.42;1.80;;;10.30;99.90;;;;;;2105049;28;20514;-75
2022/09/18 00:08:08;;;;;;;3.60;1.90;;;10.30;99.90;;;;;;2105658;28;20049;-75
2022/09/18 00:09:11;;;;;;;2.67;1.70;;;10.40;99.90;;;;;;2105868;28;20374;-75
2022/09/18 00:10:12;;;;;;;3.47;1.77;;;10.40;99.90;;;;;;2105985;28;20119;-75
2022/09/18 00:11:14;;;;;;;3.00;1.80;;;10.40;99.90;;;;;;2096849;28;20025;-75
2022/09/18 00:12:15;;;;;;;4.63;1.80;;;10.40;99.90;;;;;;2096920;28;20036;-75
2022/09/18 00:13:16;;;;;;;4.43;1.98;;;10.40;99.90;;;;;;2097685;28;20031;-78
2022/09/18 00:14:21;;;;;;;2.50;1.70;;;10.40;99.90;;;;;;2106758;28;20051;-78
2022/09/18 00:15:21;;;;;;;2.95;1.83;;;10.40;99.90;;;;;;2098261;28;20056;-77
2022/09/18 00:16:23;;;;;;;3.03;1.88;;;10.40;99.90;;;;;;2097374;28;20067;-75
2022/09/18 00:17:24;;;;;;;3.72;2.13;;;10.40;99.90;;;;;;2104927;28;20036;-73
2022/09/18 00:18:25;;;;;;;2.55;1.58;;;10.30;99.90;;;;;;2104848;28;20042;-73
2022/09/18 00:19:26;;;;;;;3.47;1.90;;;10.30;99.90;;;;;;2096581;28;20079;-74
2022/09/18 00:20:26;;;;;;;1.90;1.70;;;10.30;99.90;;;;;;2088398;28;20067;-73
2022/09/18 00:21:28;;;;;;;4.00;1.80;;;10.30;99.90;;;;;;2080618;28;20099;-73
2022/09/18 00:22:29;;;;;;;3.42;1.80;;;10.30;99.90;;;;;;2089269;28;20067;-73
2022/09/18 00:23:30;;;;;;;3.75;1.75;;;10.30;99.90;;;;;;2096601;28;20023;-73
2022/09/18 00:24:30;;;;;;;2.92;1.73;;;10.30;99.90;;;;;;2097747;28;20039;-73
2022/09/18 00:25:34;;;;;;;2.85;1.80;;;10.30;99.90;;;;;;2112397;28;20043;-75
2022/09/18 00:26:34;;;;;;;4.40;1.90;;;10.30;99.90;;;;;;2106570;28;20032;-75
2022/09/18 00:27:35;;;;;;;4.32;2.13;;;10.30;99.90;;;;;;2105260;28;20028;-74
2022/09/18 00:28:36;;;;;;;7.13;1.95;;;10.30;99.90;;;;;;2104834;28;20028;-74
2022/09/18 00:29:37;;;;;;;3.88;2.10;;;10.30;99.90;;;;;;2113636;28;20057;-74
2022/09/18 00:30:38;;;;;;;3.10;2.30;;;10.30;99.90;;;;;;2114184;28;20169;-74
2022/09/18 00:31:39;;;;;;;3.05;2.17;;;10.20;99.90;;;;;;2114260;28;20565;-75
2022/09/18 00:32:40;;;;;;;5.55;2.28;;;10.20;99.90;;;;;;2113432;28;20154;-76
2022/09/18 00:33:41;;;;;;;5.47;2.28;;;10.10;99.90;;;;;;2104870;28;20085;-74
2022/09/18 00:34:41;;;;;;;3.53;2.00;;;10.20;99.90;;;;;;2105113;28;20020;-75
2022/09/18 00:35:42;;;;;;;3.38;2.05;;;10.10;99.90;;;;;;2113012;28;20086;-74
2022/09/18 00:36:43;;;;;;;3.13;2.17;;;10.10;99.90;;;;;;2112941;28;20520;-74
2022/09/18 00:37:45;;;;;;;3.53;2.40;;;10.10;99.90;;;;;;2113215;28;20081;-74
2022/09/18 00:38:46;;;;;;;3.30;2.53;;;10.10;99.90;;;;;;2113124;28;20366;-74
2022/09/18 00:39:47;;;;;;;5.38;2.60;;;10.10;99.90;;;;;;2107320;28;20016;-74
2022/09/18 00:40:48;;;;;;;4.35;2.90;;;10.10;99.90;;;;;;2103542;28;20147;-75
2022/09/18 00:41:48;;;;;;;4.90;2.90;;;10.10;99.90;;;;;;2100155;28;20016;-75
2022/09/18 00:42:49;;;;;;;6.53;3.08;;;10.10;99.90;;;;;;2104557;28;20680;-74
2022/09/18 00:43:51;;;;;;;7.45;3.20;;;10.10;99.90;;;;;;2105309;28;20035;-74
2022/09/18 00:44:52;;;;;;;5.35;3.40;;;10.10;99.90;;;;;;2105718;28;20441;-75
2022/09/18 00:46:14;;;;;;;8.48;3.28;;;10.10;99.90;;;;;;2104958;28;20020;-74
2022/09/18 00:47:20;;;;;;;7.80;3.60;;;10.10;99.90;;;;;;2104657;28;20021;-74
2022/09/18 00:48:23;;;;;;;6.40;3.40;;;10.10;99.90;;;;;;2104767;28;20028;-73
2022/09/18 00:49:26;;;;;;;6.28;3.55;;;10.10;99.90;;;;;;2104934;28;20052;-73
2022/09/18 00:50:27;;;;;;;7.03;3.60;;;10.10;99.90;;;;;;2096846;28;20532;-73
2022/09/18 00:51:31;;;;;;;5.75;3.50;;;10.10;99.90;;;;;;2104703;28;20036;-73
2022/09/18 00:53:00;;;;;;;9.93;4.28;;;10.10;99.90;;;;;;2104967;28;20028;-73
2022/09/18 00:54:18;;;;;;;7.95;4.03;;;10.10;99.90;;;;;;2104777;28;20044;-73
2022/09/18 00:55:23;;;;;;;6.72;3.72;;;10.10;99.90;;;;;;2098844;28;20032;-74
2022/09/18 00:56:24;;;;;;;7.22;3.95;;;10.10;99.90;;;;;;2096662;28;20025;-74
2022/09/18 00:57:29;;;;;;;9.98;4.40;;;10.10;99.90;;;;;;2096712;28;20059;-74
2022/09/18 00:58:31;;;;;;;9.32;3.95;;;10.10;99.90;;;;;;2104894;28;20040;-75
2022/09/18 00:59:34;;;;;;;7.30;4.18;;;10.10;99.90;;;;;;2096605;28;20060;-74
2022/09/18 01:00:35;;;;;;;7.22;4.10;;;10.10;99.90;;;;;;2104911;28;20024;-74
2022/09/18 01:01:35;;;;;;;6.28;4.15;;;10.10;99.90;;;;;;2104279;28;20435;-76
2022/09/18 01:02:37;;;;;;;5.40;4.10;;;10.10;99.90;;;;;;2098759;28;20103;-74
2022/09/18 01:03:38;;;;;;;8.88;4.53;;;10.20;99.90;;;;;;2105020;28;20486;-75
2022/09/18 01:04:39;;;;;;;7.88;4.18;;;10.10;99.90;;;;;;2088261;28;20044;-75
2022/09/18 01:06:08;;;;;;;9.50;3.90;;;10.10;99.90;;;;;;2088124;28;20029;-75
2022/09/18 01:07:30;;;;;;;8.13;4.22;;;10.10;99.90;;;;;;2100464;28;20056;-75
2022/09/18 01:09:01;;;;;;;10.45;4.60;;;10.10;99.90;;;;;;2104824;28;20028;-75
2022/09/18 01:10:14;;;;;;;8.57;4.50;;;10.20;99.90;;;;;;2092358;28;20036;-74
2022/09/18 01:11:21;;;;;;;12.27;4.88;;;10.20;99.90;;;;;;2096537;28;20012;-75
2022/09/18 01:12:36;;;;;;;6.70;4.22;;;10.20;99.90;;;;;;2097064;28;20641;-75
2022/09/18 01:14:04;;;;;;;7.43;4.40;;;10.10;99.90;;;;;;2096862;28;20025;-75
2022/09/18 01:15:15;;;;;;;7.55;4.10;;;10.20;99.90;;;;;;2097029;28;20397;-76
2022/09/18 01:16:42;;;;;;;8.57;4.10;;;10.10;99.90;;;;;;2096395;28;20025;-75
2022/09/18 01:18:01;;;;;;;5.95;4.05;;;10.20;99.90;;;;;;2098060;28;20039;-74
2022/09/18 01:19:27;;;;;;;7.97;4.35;;;10.20;99.90;;;;;;2104310;28;20032;-74
2022/09/18 01:20:55;;;;;;;6.90;3.85;;;10.20;99.90;;;;;;2098970;28;20452;-74
2022/09/18 01:22:04;;;;;;;7.25;3.80;;;10.20;99.90;;;;;;2099401;28;20079;-75
2022/09/18 01:23:42;;;;;;;9.48;4.13;;;10.20;99.90;;;;;;2097274;28;20100;-74
2022/09/18 01:25:15;;;;;;;7.97;4.00;;;10.20;99.90;;;;;;2104881;28;20718;-74
2022/09/18 01:26:49;;;;;;;5.40;3.40;;;10.20;99.90;;;;;;2090519;28;20480;-74
2022/09/18 01:28:08;;;;;;;7.00;3.90;;;10.20;99.90;;;;;;2092244;28;20036;-74
2022/09/18 01:29:42;;;;;;;8.02;3.60;;;10.20;99.90;;;;;;2098508;28;20055;-73
2022/09/18 01:30:46;;;;;;;8.07;3.60;;;10.10;99.90;;;;;;2100261;28;20285;-74
2022/09/18 01:32:34;;;;;;;7.03;3.55;;;10.10;99.90;;;;;;2104103;28;20073;-73
2022/09/18 01:33:46;;;;;;;6.78;3.33;;;10.10;99.90;;;;;;2088664;28;20040;-73
2022/09/18 01:35:20;;;;;;;6.97;3.33;;;10.10;99.90;;;;;;2089389;28;20029;-74
2022/09/18 01:36:24;;;;;;;7.22;3.50;;;10.10;99.90;;;;;;2096854;28;20075;-74
2022/09/18 01:37:36;;;;;;;8.88;3.70;;;10.00;99.90;;;;;;2097262;28;20029;-74
2022/09/18 01:38:48;;;;;;;6.90;3.10;;;10.10;99.90;;;;;;2103789;28;20043;-73
2022/09/18 01:40:04;;;;;;;6.70;3.55;;;10.00;99.90;;;;;;2097105;28;20560;-73
2022/09/18 01:41:12;;;;;;;7.00;3.40;;;10.00;99.90;;;;;;2103948;28;20035;-73
2022/09/18 01:42:17;;;;;;;6.53;3.05;;;10.00;99.90;;;;;;2096698;28;20399;-74
2022/09/18 01:43:22;;;;;;;6.40;3.15;;;10.00;99.90;;;;;;2096624;28;20051;-73
2022/09/18 01:44:28;;;;;;;6.82;3.00;;;10.00;99.90;;;;;;2104445;28;20028;-74
2022/09/18 01:45:41;;;;;;;7.07;3.20;;;10.00;99.90;;;;;;2103990;28;20077;-73
2022/09/18 01:46:44;;;;;;;3.75;2.50;;;10.00;99.90;;;;;;2096669;28;20035;-73
2022/09/18 01:47:53;;;;;;;4.45;2.70;;;10.00;99.90;;;;;;2095986;28;20044;-73
2022/09/18 01:49:07;;;;;;;4.82;2.63;;;10.00;99.90;;;;;;2104094;28;20035;-73
2022/09/18 01:50:16;;;;;;;5.90;2.80;;;9.90;99.90;;;;;;2095785;28;20144;-74
2022/09/18 01:51:28;;;;;;;6.43;2.75;;;10.00;99.90;;;;;;2088681;28;20037;-73
2022/09/18 01:52:35;;;;;;;7.13;2.60;;;9.90;99.90;;;;;;2097540;28;20036;-73
2022/09/18 01:53:47;;;;;;;6.35;2.80;;;9.90;99.90;;;;;;2102977;28;20035;-74
2022/09/18 01:54:50;;;;;;;4.18;2.40;;;9.90;99.90;;;;;;2103895;28;20414;-74
2022/09/18 01:56:00;;;;;;;6.60;3.00;;;9.90;99.90;;;;;;2103748;28;20036;-74
2022/09/18 01:57:23;;;;;;;6.03;2.70;;;9.90;99.90;;;;;;2096810;28;20047;-74
2022/09/18 01:58:26;;;;;;;5.18;2.70;;;9.90;99.90;;;;;;2098571;28;20032;-76
2022/09/18 01:59:37;;;;;;;4.80;2.80;;;9.80;99.90;;;;;;2105067;28;20024;-76
2022/09/18 02:00:47;;;;;;;5.28;2.95;;;9.90;99.90;;;;;;2105849;28;20031;-75
2022/09/18 02:01:50;;;;;;;8.52;3.30;;;9.90;99.90;;;;;;2105598;28;20065;-75
2022/09/18 02:02:53;;;;;;;4.75;2.97;;;9.80;99.90;;;;;;2097884;28;20031;-75
2022/09/18 02:04:05;;;;;;;8.93;3.50;;;9.80;99.90;;;;;;2097982;28;20612;-75
2022/09/18 02:05:09;;;;;;;6.78;3.38;;;9.80;99.90;;;;;;2105814;28;20054;-75
2022/09/18 02:06:20;;;;;;;8.05;3.90;;;9.70;99.90;;;;;;2105626;28;20103;-75
2022/09/18 02:07:29;;;;;;;9.27;3.92;;;9.70;99.90;;;;;;2105719;28;20024;-76
2022/09/18 02:08:41;;;;;;;7.60;4.00;;;9.70;99.90;;;;;;2105769;28;20028;-75
2022/09/18 02:09:43;;;;;;;8.77;4.13;;;9.60;99.90;;;;;;2097878;28;20058;-75
2022/09/18 02:10:54;;;;;;;8.07;4.47;;;9.60;99.90;;;;;;2098292;28;20058;-75
2022/09/18 02:12:00;;;;;;;11.98;4.15;;;9.50;99.90;;;;;;2099081;28;20027;-74
2022/09/18 02:13:07;;;;;;;12.02;4.63;;;9.50;99.90;;;;;;2098664;28;20032;-76
2022/09/18 02:14:24;;;;;;;8.57;4.60;;;9.50;99.90;;;;;;2098022;28;20017;-75
2022/09/18 02:15:48;;;;;;;10.63;4.55;;;9.50;99.90;;;;;;2099608;28;20024;-77
2022/09/18 02:16:58;;;;;;;8.60;4.72;;;9.40;99.90;;;;;;2105655;28;20164;-76
2022/09/18 02:18:05;;;;;;;9.23;4.72;;;9.40;99.90;;;;;;2097135;28;20107;-76
2022/09/18 02:19:18;;;;;;;7.20;4.38;;;9.40;99.90;;;;;;2098786;28;20390;-76
2022/09/18 02:20:26;;;;;;;8.30;4.43;;;9.40;99.90;;;;;;2098689;28;20016;-76
2022/09/18 02:21:29;;;;;;;11.25;5.00;;;9.40;99.90;;;;;;2105468;28;20631;-76
2022/09/18 02:22:33;;;;;;;9.30;5.05;;;9.40;99.90;;;;;;2105735;28;20111;-75
2022/09/18 02:23:36;;;;;;;12.80;5.18;;;9.40;99.90;;;;;;2097848;28;20124;-75
2022/09/18 02:24:40;;;;;;;8.40;4.88;;;9.40;99.90;;;;;;2089147;28;20032;-75
2022/09/18 02:25:46;;;;;;;9.77;4.95;;;9.40;99.90;;;;;;2089693;28;20088;-74
2022/09/18 02:26:50;;;;;;;11.45;5.25;;;9.40;99.90;;;;;;2089105;28;20024;-72
2022/09/18 02:27:53;;;;;;;11.18;5.57;;;9.40;99.90;;;;;;2089571;28;20028;-74
2022/09/18 02:28:56;;;;;;;10.27;5.28;;;9.40;99.90;;;;;;2097727;28;20482;-73
2022/09/18 02:29:57;;;;;;;12.27;5.35;;;9.30;99.90;;;;;;2105700;28;20414;-73
2022/09/18 02:30:58;;;;;;;7.88;5.25;;;9.30;99.90;;;;;;2097445;28;20128;-74
2022/09/18 02:32:00;;;;;;;11.00;5.35;;;9.30;99.90;;;;;;2097238;28;20561;-74
2022/09/18 02:33:01;;;;;;;9.40;5.22;;;9.30;99.90;;;;;;2105350;28;20028;-74
2022/09/18 02:34:02;;;;;;;8.35;5.15;;;9.40;99.90;;;;;;2103321;28;20019;-74
2022/09/18 02:35:05;;;;;;;12.13;5.63;;;9.40;99.90;;;;;;2106317;28;20095;-74
2022/09/18 02:36:40;;;;;;;9.00;5.40;;;9.40;99.90;;;;;;2105474;28;20024;-73
2022/09/18 02:37:58;;;;;;;10.18;5.53;;;9.50;99.90;;;;;;2105847;28;20070;-74
2022/09/18 02:39:35;;;;;;;9.82;5.22;;;9.50;99.90;;;;;;2097242;28;20463;-74
2022/09/18 02:40:50;;;;;;;11.15;5.22;;;9.40;99.90;;;;;;2102322;28;20038;-73
2022/09/18 02:42:07;;;;;;;9.10;5.20;;;9.40;99.90;;;;;;2101084;28;20028;-73
2022/09/18 02:43:29;;;;;;;10.68;5.20;;;9.50;99.90;;;;;;2100893;28;20067;-76
2022/09/18 02:44:51;;;;;;;14.02;5.10;;;9.40;99.90;;;;;;2100851;28;20137;-75
2022/09/18 02:46:22;;;;;;;9.45;5.18;;;9.50;99.90;;;;;;2100125;28;20024;-73
2022/09/18 02:47:49;;;;;;;;;;;9.40;99.90;;;;;;2093480;28;20032;-74
2022/09/18 02:48:56;;;;;;;8.88;5.10;;;9.40;99.90;;;;;;2079690;28;19924;-76
2022/09/18 02:50:08;;;;;;;10.90;5.40;;;9.40;99.90;;;;;;2078161;28;20029;-73
2022/09/18 02:51:24;;;;;;;11.07;5.68;;;9.40;99.90;;;;;;2090676;28;20020;-73
2022/09/18 02:52:37;;;;;;;11.82;6.00;;;9.40;99.90;;;;;;2100020;28;20032;-75
2022/09/18 02:53:53;;;;;;;10.38;6.15;;;9.40;99.90;;;;;;2100601;28;20036;-75
2022/09/18 02:54:56;;;;;;;11.88;6.05;;;9.30;99.90;;;;;;2094120;28;20021;-76
2022/09/18 02:56:03;;;;;;;14.73;7.03;;;9.40;99.90;;;;;;2094698;28;20124;-73
2022/09/18 02:57:13;;;;;;;18.27;7.88;;;9.30;99.90;;;;;;2103392;28;20134;-74
2022/09/18 02:58:20;;;;;;;19.38;8.80;;;9.20;99.90;;;;;;2102155;28;20033;-73
2022/09/18 02:59:32;;;;;;;22.70;9.25;;;9.20;99.90;;;;;;2109734;28;20028;-73
2022/09/18 03:00:34;;;;;;;24.77;9.85;;;9.20;99.90;;;;;;2110711;28;20028;-75
2022/09/18 03:01:43;;;;;;;23.48;9.85;;;9.30;99.90;;;;;;2102028;28;20063;-75
2022/09/18 03:02:44;;;;;;;24.05;9.63;;;9.20;99.90;;;;;;2106692;28;20061;-74
2022/09/18 03:03:47;;;;;;;22.55;9.88;;;9.20;99.90;;;;;;2106199;28;20090;-74
2022/09/18 03:04:51;;;;;;;23.65;10.07;;;9.20;99.90;;;;;;2098240;28;20051;-73
2022/09/18 03:06:00;;;;;;;25.85;10.10;;;9.10;99.90;;;;;;2098839;28;20028;-73
2022/09/18 03:07:01;;;;;;;31.95;10.82;;;9.10;99.90;;;;;;2097411;28;20613;-75
2022/09/18 03:08:02;;;;;;;30.55;11.38;;;9.10;99.90;;;;;;2097187;28;20079;-73
2022/09/18 03:09:04;;;;;;;21.95;10.23;;;9.10;99.90;;;;;;2097184;28;20033;-73
2022/09/18 03:10:05;;;;;;;30.23;11.30;;;9.10;99.90;;;;;;2102741;28;20068;-75
2022/09/18 03:11:06;;;;;;;36.83;11.55;;;9.20;99.90;;;;;;2088922;28;20075;-73
2022/09/18 03:12:07;;;;;;;31.75;10.88;;;9.10;99.90;;;;;;2088898;28;20064;-74
2022/09/18 03:13:12;;;;;;;31.90;11.02;;;9.10;99.90;;;;;;2093166;28;20147;-72
2022/09/18 03:14:13;;;;;;;34.80;11.57;;;9.10;99.90;;;;;;2096995;28;20028;-73
2022/09/18 03:15:13;;;;;;;25.65;10.25;;;9.10;99.90;;;;;;2095714;28;20032;-74
2022/09/18 03:16:14;;;;;;;38.08;11.63;;;9.10;99.90;;;;;;2103150;28;20514;-74
2022/09/18 03:17:16;;;;;;;25.77;10.35;;;9.10;99.90;;;;;;2105547;28;20035;-73
2022/09/18 03:18:18;;;;;;;37.95;11.23;;;9.20;99.90;;;;;;2105392;28;20020;-73
2022/09/18 03:19:19;;;;;;;35.13;11.18;;;9.10;99.90;;;;;;2105392;28;20028;-73
2022/09/18 03:20:20;;;;;;;28.63;10.98;;;9.10;99.90;;;;;;2105227;28;20060;-73
2022/09/18 03:21:23;;;;;;;38.35;11.85;;;9.10;99.90;;;;;;2105251;28;20030;-73
2022/09/18 03:22:24;;;;;;;31.75;10.15;;;9.10;99.90;;;;;;2105232;28;20028;-73
2022/09/18 03:23:25;;;;;;;30.80;10.85;;;9.10;99.90;;;;;;2105173;28;20048;-73
2022/09/18 03:24:32;;;;;;;37.88;11.60;;;9.10;99.90;;;;;;2106034;28;20527;-73
2022/09/18 03:25:34;;;;;;;28.75;10.65;;;9.10;99.90;;;;;;2104939;28;20020;-73
2022/09/18 03:26:36;;;;;;;37.00;11.73;;;9.10;99.90;;;;;;2113660;28;20016;-74
2022/09/18 03:27:39;;;;;;;32.45;11.32;;;9.10;99.90;;;;;;2105465;28;20115;-72
2022/09/18 03:28:40;;;;;;;35.22;12.00;;;9.10;99.90;;;;;;2098084;28;20083;-74
2022/09/18 03:29:41;;;;;;;33.45;11.43;;;9.10;99.90;;;;;;2095823;28;20028;-73
2022/09/18 03:30:44;;;;;;;28.38;11.32;;;9.10;99.90;;;;;;2105235;28;20016;-74
2022/09/18 03:31:46;;;;;;;34.22;11.55;;;9.10;99.90;;;;;;2104582;28;20027;-72
2022/09/18 03:32:47;;;;;;;31.90;11.23;;;9.10;99.90;;;;;;2097019;28;20025;-73
2022/09/18 03:33:50;;;;;;;34.00;11.13;;;9.10;99.90;;;;;;2097178;28;20191;-74
2022/09/18 03:34:50;;;;;;;36.35;12.05;;;9.10;99.90;;;;;;2096480;28;20082;-72
2022/09/18 03:35:51;;;;;;;28.85;11.13;;;9.10;99.90;;;;;;2088299;28;20037;-72
2022/09/18 03:36:52;;;;;;;28.92;10.93;;;9.10;99.90;;;;;;2088459;28;20029;-74
2022/09/18 03:37:54;;;;;;;34.47;11.68;;;9.10;99.90;;;;;;2096644;28;20036;-72
2022/09/18 03:38:56;;;;;;;34.38;12.25;;;9.00;99.90;;;;;;2104885;28;20032;-73
2022/09/18 03:39:57;;;;;;;38.55;13.23;;;9.00;99.90;;;;;;2096711;28;20050;-71
2022/09/18 03:40:59;;;;;;;45.40;13.60;;;8.90;99.90;;;;;;2096953;28;20063;-72
2022/09/18 03:42:00;;;;;;;35.53;13.07;;;9.00;99.90;;;;;;2096695;28;20203;-73
2022/09/18 03:43:00;;;;;;;38.15;12.02;;;9.00;99.90;;;;;;2105083;28;20091;-74
2022/09/18 03:44:01;;;;;;;29.85;12.02;;;8.90;99.90;;;;;;2097044;28;20116;-72
2022/09/18 03:45:03;;;;;;;38.85;12.57;;;8.90;99.90;;;;;;2105176;28;20023;-73
2022/09/18 03:46:04;;;;;;;35.72;12.13;;;9.00;99.90;;;;;;2104844;28;20028;-73
2022/09/18 03:47:08;;;;;;;35.80;12.57;;;9.00;99.90;;;;;;2096827;28;20024;-74
2022/09/18 03:48:10;;;;;;;37.40;12.32;;;9.00;99.90;;;;;;2089495;28;20033;-73
2022/09/18 03:49:10;;;;;;;40.78;12.32;;;9.00;99.90;;;;;;2096664;28;20072;-76
2022/09/18 03:50:14;;;;;;;43.83;12.07;;;9.00;99.90;;;;;;2096934;28;20025;-73
2022/09/18 03:51:17;;;;;;;39.22;12.10;;;9.00;99.90;;;;;;2095632;28;20473;-74
2022/09/18 03:52:18;;;;;;;42.63;12.30;;;9.00;99.90;;;;;;2105095;28;20032;-73
2022/09/18 03:53:26;;;;;;;41.13;12.07;;;9.00;99.90;;;;;;2097700;28;20054;-74
2022/09/18 03:54:50;;;;;;;34.17;10.52;;;9.00;99.90;;;;;;2096936;28;20036;-75
2022/09/18 03:56:09;;;;;;;29.55;10.38;;;9.00;99.90;;;;;;2105682;28;20036;-75
2022/09/18 03:57:32;;;;;;;39.80;10.30;;;9.00;99.90;;;;;;2099289;28;20055;-73
2022/09/18 03:59:05;;;;;;;33.42;10.00;;;8.90;99.90;;;;;;2095149;28;20497;-73
2022/09/18 04:00:10;;;;;;;25.88;9.40;;;8.90;99.90;;;;;;2102981;28;20036;-74
2022/09/18 04:01:17;;;;;;;32.95;10.25;;;8.90;99.90;;;;;;2105579;28;20040;-73
2022/09/18 04:02:36;;;;;;;29.20;9.10;;;8.90;99.90;;;;;;2105801;28;20090;-73
2022/09/18 04:03:55;;;;;;;37.53;9.43;;;9.00;99.90;;;;;;2105714;28;20032;-74
2022/09/18 04:05:02;;;;;;;34.33;8.77;;;9.00;99.90;;;;;;2105707;28;20549;-74
2022/09/18 04:06:41;;;;;;;30.23;8.82;;;8.90;99.90;;;;;;2101568;28;20063;-73
2022/09/18 04:08:04;;;;;;;32.53;8.85;;;8.90;99.90;;;;;;2115333;27;20027;-73
2022/09/18 04:09:23;;;;;;;;;;;8.90;99.90;;;;;;2108875;28;20077;-74
2022/09/18 04:10:25;;;;;;;31.38;8.43;;;8.80;99.90;;;;;;2098477;28;19909;-75
2022/09/18 04:11:26;;;;;;;30.10;8.88;;;8.80;99.90;;;;;;2095446;28;20037;-73
2022/09/18 04:12:27;;;;;;;35.05;8.73;;;8.90;99.90;;;;;;2096333;28;20434;-73
2022/09/18 04:13:40;;;;;;;24.08;7.97;;;8.80;99.90;;;;;;2088389;28;20515;-73
2022/09/18 04:14:43;;;;;;;31.65;7.57;;;8.90;99.90;;;;;;2082552;28;20029;-72
2022/09/18 04:15:46;;;;;;;31.75;8.00;;;8.90;99.90;;;;;;2096423;28;20498;-73
2022/09/18 04:16:47;;;;;;;34.80;7.85;;;8.90;99.90;;;;;;2096413;28;20131;-74
2022/09/18 04:17:48;;;;;;;33.88;7.80;;;8.90;99.90;;;;;;2088010;28;20032;-72
2022/09/18 04:18:49;;;;;;;37.25;8.00;;;8.90;99.90;;;;;;2096317;28;20021;-73
2022/09/18 04:19:50;;;;;;;32.03;7.35;;;8.90;99.90;;;;;;2096242;28;20703;-75
2022/09/18 04:20:50;;;;;;;20.55;7.10;;;8.90;99.90;;;;;;2088106;28;20027;-72
2022/09/18 04:21:51;;;;;;;23.77;7.13;;;8.90;99.90;;;;;;2087159;28;20144;-73
2022/09/18 04:22:52;;;;;;;26.02;7.18;;;8.90;99.90;;;;;;2088163;28;20029;-73
2022/09/18 04:23:55;;;;;;;27.20;7.32;;;8.90;99.90;;;;;;2096370;28;20566;-73
2022/09/18 04:24:55;;;;;;;38.20;7.95;;;8.70;99.90;;;;;;2098708;28;20025;-73
2022/09/18 04:25:56;;;;;;;33.95;8.43;;;8.70;99.90;;;;;;2101060;28;20040;-73
2022/09/18 04:27:02;;;;;;;35.03;7.53;;;8.80;99.90;;;;;;2101766;28;20062;-72
2022/09/18 04:28:02;;;;;;;33.03;7.75;;;8.70;99.90;;;;;;2096346;28;20085;-73
2022/09/18 04:29:04;;;;;;;30.80;7.20;;;8.70;99.90;;;;;;2096211;28;20027;-73
2022/09/18 04:30:06;;;;;;;22.95;7.38;;;8.70;99.90;;;;;;2096566;28;20086;-73
2022/09/18 04:31:08;;;;;;;30.70;8.07;;;8.80;99.90;;;;;;2088391;28;20067;-74
2022/09/18 04:32:09;;;;;;;33.42;7.93;;;8.70;99.90;;;;;;2079723;28;20113;-73
2022/09/18 04:33:10;;;;;;;36.17;7.70;;;8.70;99.90;;;;;;2088365;28;20036;-72
2022/09/18 04:34:10;;;;;;;22.23;7.10;;;8.70;99.90;;;;;;2096200;28;20504;-73
2022/09/18 04:35:11;;;;;;;32.22;8.02;;;8.70;99.90;;;;;;2096461;28;20067;-76
2022/09/18 04:36:12;;;;;;;22.33;7.63;;;8.70;99.90;;;;;;2096538;28;20035;-73
2022/09/18 04:37:13;;;;;;;33.13;7.40;;;8.70;99.90;;;;;;2087817;28;20033;-73
2022/09/18 04:38:13;;;;;;;23.27;6.80;;;8.70;99.90;;;;;;2096337;28;20075;-73
2022/09/18 04:39:14;;;;;;;27.30;7.35;;;8.70;99.90;;;;;;2088015;28;20087;-74
2022/09/18 04:40:15;;;;;;;27.30;7.00;;;8.80;99.90;;;;;;2096293;28;20111;-73
2022/09/18 04:41:17;;;;;;;30.73;7.47;;;8.80;99.90;;;;;;2096076;28;20065;-74
2022/09/18 04:42:18;;;;;;;29.33;7.53;;;8.80;99.90;;;;;;2104659;28;20070;-74
2022/09/18 04:43:19;;;;;;;27.45;7.13;;;8.70;99.90;;;;;;2096475;28;20028;-74
2022/09/18 04:44:20;;;;;;;32.38;7.65;;;8.70;99.90;;;;;;2096586;28;20090;-74
2022/09/18 04:45:21;;;;;;;31.33;7.65;;;8.80;99.90;;;;;;2104692;28;20035;-73
2022/09/18 04:46:22;;;;;;;30.63;7.88;;;8.80;99.90;;;;;;2104414;28;20032;-74
2022/09/18 04:47:25;;;;;;;21.85;7.05;;;8.80;99.90;;;;;;2089093;28;20190;-73
2022/09/18 04:48:26;;;;;;;29.55;8.20;;;8.80;99.90;;;;;;2096318;28;20060;-73
2022/09/18 04:49:45;;;;;;;26.70;7.32;;;8.80;99.90;;;;;;2096711;28;20031;-73
2022/09/18 04:50:47;;;;;;;36.25;8.25;;;8.80;99.90;;;;;;2098653;28;20082;-75
2022/09/18 04:51:55;;;;;;;40.63;8.05;;;8.80;99.90;;;;;;2098407;28;20386;-74
2022/09/18 04:52:58;;;;;;;29.90;7.32;;;8.70;99.90;;;;;;2098652;28;20044;-73
2022/09/18 04:53:59;;;;;;;29.38;7.68;;;8.70;99.90;;;;;;2088114;28;20075;-72
2022/09/18 04:55:00;;;;;;;43.40;8.52;;;8.70;99.90;;;;;;2089006;28;20511;-74
2022/09/18 04:56:01;;;;;;;37.50;8.15;;;8.70;99.90;;;;;;2095959;28;20115;-73
2022/09/18 04:57:08;;;;;;;27.45;8.32;;;8.70;99.90;;;;;;2098762;28;20055;-74
2022/09/18 04:58:11;;;;;;;34.65;8.20;;;8.70;99.90;;;;;;2098242;28;20063;-74
2022/09/18 04:59:11;;;;;;;36.38;8.00;;;8.70;99.90;;;;;;2097326;28;20414;-73
2022/09/18 05:00:16;;;;;;;27.40;8.00;;;8.70;99.90;;;;;;2105312;28;20062;-73
2022/09/18 05:01:17;;;;;;;32.88;8.27;;;8.70;99.90;;;;;;2096665;28;20032;-76
2022/09/18 05:02:19;;;;;;;35.40;8.82;;;8.60;99.90;;;;;;2096360;28;20540;-72
2022/09/18 05:03:21;;;;;;;30.20;8.40;;;8.60;99.90;;;;;;2096411;28;20036;-74
2022/09/18 05:04:23;;;;;;;33.50;8.30;;;8.60;99.90;;;;;;2090080;28;20041;-72
2022/09/18 05:05:31;;;;;;;29.65;8.32;;;8.60;99.90;;;;;;2092643;28;20118;-74
2022/09/18 05:06:32;;;;;;;27.63;7.90;;;8.60;99.90;;;;;;2090379;28;20029;-76
2022/09/18 05:07:43;;;;;;;27.70;7.28;;;8.60;99.90;;;;;;2091373;28;20017;-73
2022/09/18 05:08:45;;;;;;;21.50;6.80;;;8.60;99.90;;;;;;2102557;28;20087;-74
2022/09/18 05:09:50;;;;;;;22.63;6.63;;;8.60;99.90;;;;;;2108202;28;20024;-74
2022/09/18 05:10:51;;;;;;;23.10;6.05;;;8.70;99.90;;;;;;2108828;28;20048;-74
2022/09/18 05:12:02;;;;;;;30.25;6.82;;;8.70;99.90;;;;;;2108888;28;20027;-73
2022/09/18 05:13:10;;;;;;;26.92;6.78;;;8.60;99.90;;;;;;2113260;28;20031;-75
2022/09/18 05:14:17;;;;;;;27.33;7.28;;;8.60;99.90;;;;;;2107761;28;20020;-74
2022/09/18 05:15:25;;;;;;;30.40;7.28;;;8.60;99.90;;;;;;2105519;28;20024;-71
2022/09/18 05:16:26;;;;;;;34.80;7.15;;;8.60;99.90;;;;;;2113212;28;20038;-73
2022/09/18 05:17:47;;;;;;;35.85;7.10;;;8.60;99.90;;;;;;2099142;28;20564;-72
2022/09/18 05:18:50;;;;;;;35.03;7.32;;;8.60;99.90;;;;;;2099739;28;20021;-74
2022/09/18 05:19:52;;;;;;;39.83;8.00;;;8.50;99.90;;;;;;2105123;28;20518;-74
2022/09/18 05:21:04;;;;;;;26.58;7.57;;;8.60;99.90;;;;;;2100527;28;20021;-74
2022/09/18 05:22:08;;;;;;;30.08;6.80;;;8.60;99.90;;;;;;2102782;28;20012;-73
2022/09/18 05:23:23;;;;;;;26.25;7.15;;;8.60;99.90;;;;;;2104313;28;20054;-72
2022/09/18 05:24:24;;;;;;;33.65;7.40;;;8.60;99.90;;;;;;2104524;28;20020;-75
2022/09/18 05:25:27;;;;;;;29.25;7.03;;;8.60;99.90;;;;;;2096225;28;20037;-75
2022/09/18 05:26:30;;;;;;;31.80;7.45;;;8.60;99.90;;;;;;2104448;28;20035;-74
2022/09/18 05:27:32;;;;;;;34.42;7.35;;;8.60;99.90;;;;;;2096135;28;20024;-73
2022/09/18 05:28:35;;;;;;;31.02;7.32;;;8.70;99.90;;;;;;2080385;28;20029;-74
2022/09/18 05:29:36;;;;;;;27.30;6.85;;;8.70;99.90;;;;;;2079922;28;20037;-76
2022/09/18 05:30:45;;;;;;;26.42;6.75;;;8.70;99.90;;;;;;2089400;28;20074;-73
2022/09/18 05:31:47;;;;;;;28.00;6.72;;;8.70;99.90;;;;;;2087861;28;20088;-76
2022/09/18 05:32:57;;;;;;;32.13;7.15;;;8.70;99.90;;;;;;2096924;28;20058;-74
2022/09/18 05:33:58;;;;;;;26.67;6.38;;;8.60;99.90;;;;;;2104306;28;20111;-75
2022/09/18 05:34:59;;;;;;;23.30;6.70;;;8.70;99.90;;;;;;2093497;28;20212;-70
2022/09/18 05:36:01;;;;;;;31.05;6.70;;;8.60;99.90;;;;;;2095849;28;20445;-73
2022/09/18 05:37:01;;;;;;;25.65;5.95;;;8.60;99.90;;;;;;2087729;28;20033;-73
2022/09/18 05:38:02;;;;;;;27.98;6.22;;;8.70;99.90;;;;;;2087616;28;20144;-74
2022/09/18 05:39:04;;;;;;;29.55;6.65;;;8.70;99.90;;;;;;2095763;28;20657;-73
2022/09/18 05:40:11;;;;;;;25.95;6.20;;;8.70;99.90;;;;;;2096499;28;20028;-73
2022/09/18 05:41:14;;;;;;;30.10;6.38;;;8.70;99.90;;;;;;2105030;28;20031;-74
2022/09/18 05:42:14;;;;;;;26.20;6.65;;;8.70;99.90;;;;;;2095403;28;20122;-73
2022/09/18 05:43:17;;;;;;;24.95;6.60;;;8.70;99.90;;;;;;2087512;28;20112;-73
2022/09/18 05:44:18;;;;;;;30.45;6.63;;;8.70;99.90;;;;;;2094674;28;20036;-74
2022/09/18 05:45:21;;;;;;;41.35;7.03;;;8.70;99.90;;;;;;2095511;28;20611;-73
2022/09/18 05:46:29;;;;;;;29.50;7.07;;;8.60;99.90;;;;;;2095544;28;20031;-74